createdAt,value
2018-12-21T00:00:59.572Z,101953.44
2018-12-21T00:03:49.721Z,101954.30
2018-12-21T00:06:40.430Z,101952.52
2018-12-21T00:09:31.322Z,101953.81
2018-12-21T00:12:22.161Z,101953.16
2018-12-21T00:15:12.774Z,101952.22
2018-12-21T00:18:02.957Z,101951.27
2018-12-21T00:20:52.931Z,101953.80
2018-12-21T00:23:43.772Z,101956.59
2018-12-21T00:26:34.674Z,101946.66
2018-12-21T00:29:26.507Z,101951.11
2018-12-21T00:32:21.158Z,101950.62
2018-12-21T00:35:16.984Z,101945.85
2018-12-21T00:38:12.597Z,101951.31
2018-12-21T00:41:07.298Z,101947.73
2018-12-21T00:44:18.106Z,101948.16
2018-12-21T00:47:12.064Z,101957.72
2018-12-21T00:50:02.280Z,101956.55
2018-12-21T00:52:52.175Z,101956.73
2018-12-21T00:55:42.959Z,101955.77
2018-12-21T00:58:32.873Z,101964.98
2018-12-21T01:01:23.814Z,101957.88
2018-12-21T01:04:14.341Z,101937.92
2018-12-21T01:07:04.570Z,101956.51
2018-12-21T01:09:56.090Z,101953.45
2018-12-21T01:12:45.844Z,101957.65
2018-12-21T01:15:36.529Z,101956.61
2018-12-21T01:18:26.568Z,101953.06
2018-12-21T01:21:17.858Z,101951.97
2018-12-21T01:24:08.506Z,101955.96
2018-12-21T01:26:58.227Z,101956.77
2018-12-21T01:29:48.072Z,101954.40
2018-12-21T01:32:38.055Z,101951.18
2018-12-21T01:35:28.937Z,101957.00
2018-12-21T01:38:18.892Z,101962.27
2018-12-21T01:41:09.282Z,101963.84
2018-12-21T01:44:00.077Z,101963.72
2018-12-21T01:46:50.812Z,101954.04
2018-12-21T01:49:41.527Z,101952.52
2018-12-21T01:52:31.483Z,101957.00
2018-12-21T01:55:21.286Z,101948.91
2018-12-21T01:58:11.230Z,101953.06
2018-12-21T02:01:01.943Z,101955.44
2018-12-21T02:03:51.687Z,101948.26
2018-12-21T02:06:41.666Z,101959.44
2018-12-21T02:09:31.437Z,101952.61
2018-12-21T02:12:21.345Z,101951.25
2018-12-21T02:15:12.176Z,101940.20
2018-12-21T02:18:02.214Z,101940.13
2018-12-21T02:20:52.215Z,101936.24
2018-12-21T02:23:41.934Z,101925.75
2018-12-21T02:26:31.746Z,101929.09
2018-12-21T02:29:21.829Z,101930.02
2018-12-21T02:32:11.683Z,101927.84
2018-12-21T02:35:01.484Z,101927.20
2018-12-21T02:37:51.451Z,101922.46
2018-12-21T02:40:42.239Z,101927.63
2018-12-21T02:43:32.144Z,101930.35
2018-12-21T02:46:21.972Z,101929.27
2018-12-21T02:49:11.803Z,101925.86
2018-12-21T02:52:05.751Z,101923.42
2018-12-21T02:54:54.458Z,101927.88
2018-12-21T02:57:44.391Z,101921.92
2018-12-21T03:00:34.270Z,101925.66
2018-12-21T03:03:24.360Z,101919.65
2018-12-21T03:06:15.084Z,101912.33
2018-12-21T03:09:07.940Z,101907.27
2018-12-21T03:11:58.139Z,101918.84
2018-12-21T03:14:47.930Z,101918.32
2018-12-21T03:17:37.887Z,101914.98
2018-12-21T03:20:28.754Z,101920.83
2018-12-21T03:23:19.482Z,101926.52
2018-12-21T03:26:09.298Z,101928.89
2018-12-21T03:28:59.125Z,101926.42
2018-12-21T03:31:49.104Z,101932.63
2018-12-21T03:34:39.798Z,101933.73
2018-12-21T03:37:29.770Z,101939.23
2018-12-21T03:40:19.410Z,101933.97
2018-12-21T03:43:09.474Z,101929.61
2018-12-21T03:46:00.232Z,101934.45
2018-12-21T03:48:50.162Z,101936.52
2018-12-21T03:51:40.071Z,101937.08
2018-12-21T03:54:30.227Z,101937.99
2018-12-21T03:57:21.068Z,101940.43
2018-12-21T04:00:11.656Z,101939.75
2018-12-21T04:03:01.800Z,101942.48
2018-12-21T04:05:51.503Z,101938.09
2018-12-21T04:08:41.601Z,101944.45
2018-12-21T04:11:31.336Z,101940.11
2018-12-21T04:14:21.179Z,101945.50
2018-12-21T04:17:11.480Z,101943.91
2018-12-21T04:20:01.308Z,101948.09
2018-12-21T04:22:51.033Z,101943.94
2018-12-21T04:25:41.831Z,101955.37
2018-12-21T04:28:33.003Z,101945.27
2018-12-21T04:31:23.667Z,101957.45
2018-12-21T04:34:13.593Z,101972.01
2018-12-21T04:37:03.513Z,101967.72
2018-12-21T04:39:53.445Z,101957.97
2018-12-21T04:42:43.088Z,101951.67
2018-12-21T04:45:33.306Z,101958.23
2018-12-21T04:48:23.277Z,101953.48
2018-12-21T04:51:13.182Z,101964.00
2018-12-21T04:54:03.079Z,101961.25
2018-12-21T04:56:53.295Z,101969.02
2018-12-21T04:59:43.064Z,101964.38
2018-12-21T05:02:32.749Z,101970.34
2018-12-21T05:05:22.914Z,101971.80
2018-12-21T05:08:13.695Z,101971.55
2018-12-21T05:11:04.366Z,101981.53
2018-12-21T05:13:55.526Z,101977.53
2018-12-21T05:16:46.763Z,101971.11
2018-12-21T05:19:36.844Z,101972.21
2018-12-21T05:22:27.390Z,101977.27
2018-12-21T05:25:17.206Z,101983.63
2018-12-21T05:28:07.233Z,101982.00
2018-12-21T05:30:57.073Z,101983.17
2018-12-21T05:33:47.715Z,101984.20
2018-12-21T05:36:37.697Z,101988.70
2018-12-21T05:39:27.452Z,101981.95
2018-12-21T05:42:17.403Z,101984.95
2018-12-21T05:45:07.438Z,101992.36
2018-12-21T05:47:57.211Z,101994.33
2018-12-21T05:50:47.040Z,102000.94
2018-12-21T05:53:37.288Z,102008.69
2018-12-21T05:56:27.200Z,102002.27
2018-12-21T05:59:17.326Z,102004.35
2018-12-21T06:02:07.014Z,102003.84
2018-12-21T06:04:57.067Z,102004.87
2018-12-21T06:07:47.789Z,102007.25
2018-12-21T06:10:37.998Z,102002.06
2018-12-21T06:13:27.720Z,101995.27
2018-12-21T06:16:17.791Z,102004.17
2018-12-21T06:19:07.619Z,101999.36
2018-12-21T06:21:58.448Z,102005.86
2018-12-21T06:24:49.188Z,102007.25
2018-12-21T06:27:39.375Z,102015.06
2018-12-21T06:30:30.039Z,102006.02
2018-12-21T06:33:19.846Z,102003.37
2018-12-21T06:36:14.124Z,102008.21
2018-12-21T06:39:09.214Z,102002.95
2018-12-21T06:42:01.064Z,102004.91
2018-12-21T06:44:51.364Z,101999.53
2018-12-21T06:47:41.887Z,102000.96
2018-12-21T06:50:31.643Z,102006.26
2018-12-21T06:53:21.545Z,102012.68
2018-12-21T06:56:11.599Z,102017.27
2018-12-21T06:59:01.319Z,102013.44
2018-12-21T07:01:51.318Z,102012.75
2018-12-21T07:04:41.058Z,102009.68
2018-12-21T07:07:30.852Z,102006.08
2018-12-21T07:10:20.571Z,102021.19
2018-12-21T07:13:10.730Z,102025.31
2018-12-21T07:16:00.427Z,102030.68
2018-12-21T07:18:50.299Z,102035.97
2018-12-21T07:21:40.286Z,102044.52
2018-12-21T07:24:30.860Z,102042.44
2018-12-21T07:27:21.195Z,102040.34
2018-12-21T07:30:12.648Z,102035.25
2018-12-21T07:33:03.254Z,102047.00
2018-12-21T07:35:54.051Z,102054.29
2018-12-21T07:38:44.851Z,102052.23
2018-12-21T07:41:35.769Z,102047.29
2018-12-21T07:44:25.760Z,102050.41
2018-12-21T07:47:15.796Z,102047.89
2018-12-21T07:50:06.324Z,102050.73
2018-12-21T07:52:56.558Z,102049.11
2018-12-21T07:55:47.277Z,102035.79
2018-12-21T07:58:37.153Z,102040.27
2018-12-21T08:01:28.106Z,102045.14
2018-12-21T08:04:19.151Z,102048.44
2018-12-21T08:07:09.940Z,102045.81
2018-12-21T08:09:59.806Z,102051.42
2018-12-21T08:12:49.675Z,102051.28
2018-12-21T08:15:39.413Z,102058.06
2018-12-21T08:18:30.266Z,102060.69
2018-12-21T08:21:21.149Z,102059.28
2018-12-21T08:24:11.771Z,102049.77
2018-12-21T08:27:01.709Z,102040.84
2018-12-21T08:29:51.474Z,102045.12
2018-12-21T08:32:42.312Z,102052.22
2018-12-21T08:35:32.147Z,102053.23
2018-12-21T08:38:22.407Z,102056.50
2018-12-21T08:41:12.886Z,102070.47
2018-12-21T08:44:03.666Z,102062.39
2018-12-21T08:46:53.750Z,102054.61
2018-12-21T08:49:43.783Z,102059.38
2018-12-21T08:52:34.337Z,102066.98
2018-12-21T08:55:24.192Z,102069.32
2018-12-21T08:58:14.449Z,102078.38
2018-12-21T09:01:05.082Z,102071.48
2018-12-21T09:03:55.730Z,102063.00
2018-12-21T09:06:45.718Z,102060.59
2018-12-21T09:09:35.685Z,102054.80
2018-12-21T09:12:26.018Z,102049.35
2018-12-21T09:15:19.066Z,102046.14
2018-12-21T09:18:09.730Z,102034.23
2018-12-21T09:20:59.575Z,102028.34
2018-12-21T09:23:50.492Z,102028.52
2018-12-21T09:26:40.270Z,102024.24
2018-12-21T09:29:30.337Z,102017.80
2018-12-21T09:32:20.048Z,102001.22
2018-12-21T09:35:09.866Z,102000.32
2018-12-21T09:38:01.171Z,102002.41
2018-12-21T09:40:51.942Z,101999.43
2018-12-21T09:43:41.736Z,101998.78
2018-12-21T09:46:31.740Z,102001.50
2018-12-21T09:49:22.515Z,101992.55
2018-12-21T09:52:13.107Z,101986.80
2018-12-21T09:55:03.306Z,101993.52
2018-12-21T09:57:53.136Z,101988.03
2018-12-21T10:00:42.889Z,101984.09
2018-12-21T10:03:32.814Z,101982.58
2018-12-21T10:06:22.716Z,101981.37
2018-12-21T10:09:12.617Z,101978.57
2018-12-21T10:12:02.826Z,101968.26
2018-12-21T10:14:52.879Z,101957.73
2018-12-21T10:17:42.525Z,101952.27
2018-12-21T10:20:32.802Z,101950.50
2018-12-21T10:23:22.598Z,101944.52
2018-12-21T10:26:12.618Z,101937.28
2018-12-21T10:29:03.476Z,101928.76
2018-12-21T10:31:54.382Z,101930.27
2018-12-21T10:34:44.266Z,101928.56
2018-12-21T10:37:35.314Z,101933.20
2018-12-21T10:40:25.297Z,101918.23
2018-12-21T10:43:16.121Z,101907.11
2018-12-21T10:46:05.957Z,101899.48
2018-12-21T10:48:56.041Z,101886.70
2018-12-21T10:51:46.017Z,101894.19
2018-12-21T10:54:37.095Z,101895.60
2018-12-21T10:57:26.997Z,101902.10
2018-12-21T11:00:17.090Z,101907.73
2018-12-21T11:03:07.793Z,101901.39
2018-12-21T11:05:57.741Z,101907.73
2018-12-21T11:08:47.796Z,101903.11
2018-12-21T11:11:38.083Z,101907.16
2018-12-21T11:14:29.731Z,101895.35
2018-12-21T11:17:20.067Z,101894.56
2018-12-21T11:20:10.821Z,101886.70
2018-12-21T11:23:01.690Z,101879.53
2018-12-21T11:25:51.816Z,101876.97
2018-12-21T11:28:42.627Z,101867.55
2018-12-21T11:31:32.431Z,101871.84
2018-12-21T11:34:22.468Z,101873.83
2018-12-21T11:37:13.214Z,101877.56
2018-12-21T11:40:04.350Z,101871.88
2018-12-21T11:42:54.550Z,101865.10
2018-12-21T11:45:45.558Z,101868.70
2018-12-21T11:48:35.370Z,101859.91
2018-12-21T11:51:26.228Z,101855.62
2018-12-21T11:54:16.055Z,101858.06
2018-12-21T11:57:06.248Z,101857.14
2018-12-21T11:59:56.277Z,101845.03
2018-12-21T12:02:47.198Z,101849.35
2018-12-21T12:05:37.502Z,101847.66
2018-12-21T12:08:27.424Z,101844.48
2018-12-21T12:11:17.247Z,101851.78
2018-12-21T12:14:08.919Z,101859.66
2018-12-21T12:16:58.880Z,101857.75
2018-12-21T12:19:49.950Z,101862.28
2018-12-21T12:22:39.777Z,101861.09
2018-12-21T12:25:29.840Z,101863.66
2018-12-21T12:28:19.590Z,101851.62
2018-12-21T12:31:09.682Z,101856.22
2018-12-21T12:33:59.495Z,101846.35
2018-12-21T12:36:49.439Z,101854.34
2018-12-21T12:39:39.410Z,101856.01
2018-12-21T12:42:30.351Z,101853.61
2018-12-21T12:45:20.292Z,101851.42
2018-12-21T12:48:10.532Z,101847.66
2018-12-21T12:51:00.499Z,101851.88
2018-12-21T12:53:50.277Z,101861.47
2018-12-21T12:56:40.245Z,101860.37
2018-12-21T12:59:30.382Z,101865.02
2018-12-21T13:02:21.162Z,101861.38
2018-12-21T13:05:11.199Z,101855.62
2018-12-21T13:08:01.136Z,101857.22
2018-12-21T13:10:52.114Z,101851.13
2018-12-21T13:13:41.967Z,101855.05
2018-12-21T13:16:33.902Z,101861.91
2018-12-21T13:19:23.803Z,101869.62
2018-12-21T13:22:13.798Z,101852.83
2018-12-21T13:25:11.248Z,101849.88
2018-12-21T13:27:55.793Z,101845.78
2018-12-21T13:30:46.570Z,101846.94
2018-12-21T13:33:36.567Z,101841.77
2018-12-21T13:36:26.246Z,101844.55
2018-12-21T13:39:16.566Z,101846.86
2018-12-21T13:42:06.364Z,101855.95
2018-12-21T13:44:57.336Z,101870.82
2018-12-21T13:47:48.105Z,101872.31
2018-12-21T13:50:38.067Z,101858.70
2018-12-21T13:53:27.962Z,101849.35
2018-12-21T13:56:17.920Z,101861.45
2018-12-21T13:59:08.573Z,101859.14
2018-12-21T14:01:58.492Z,101870.08
2018-12-21T14:04:48.364Z,101874.69
2018-12-21T14:07:38.416Z,101863.62
2018-12-21T14:10:29.292Z,101858.81
2018-12-21T14:13:19.978Z,101847.61
2018-12-21T14:16:09.975Z,101847.53
2018-12-21T14:19:00.175Z,101840.86
2018-12-21T14:21:49.873Z,101843.81
2018-12-21T14:24:40.194Z,101837.33
2018-12-21T14:27:30.920Z,101839.01
2018-12-21T14:30:20.873Z,101850.59
2018-12-21T14:33:10.751Z,101855.40
2018-12-21T14:36:00.698Z,101866.63
2018-12-21T14:38:50.590Z,101886.39
2018-12-21T14:41:40.703Z,101883.27
2018-12-21T14:44:30.545Z,101888.13
2018-12-21T14:47:20.685Z,101892.81
2018-12-21T14:50:12.247Z,101891.83
2018-12-21T14:53:02.519Z,101889.59
2018-12-21T14:55:52.406Z,101882.36
2018-12-21T14:58:42.357Z,101881.02
2018-12-21T15:01:32.418Z,101891.17
2018-12-21T15:04:22.430Z,101884.64
2018-12-21T15:07:12.602Z,101877.45
2018-12-21T15:10:03.196Z,101884.11
2018-12-21T15:12:52.917Z,101876.92
2018-12-21T15:15:43.041Z,101874.96
2018-12-21T15:18:33.019Z,101876.89
2018-12-21T15:21:24.098Z,101873.55
2018-12-21T15:24:14.015Z,101883.55
2018-12-21T15:27:04.058Z,101891.89
2018-12-21T15:29:53.674Z,101894.03
2018-12-21T15:32:43.988Z,101897.20
2018-12-21T15:35:33.592Z,101901.28
2018-12-21T15:38:23.520Z,101900.25
2018-12-21T15:41:13.419Z,101893.89
2018-12-21T15:44:03.460Z,101890.19
2018-12-21T15:46:53.184Z,101882.75
2018-12-21T15:49:45.005Z,101883.27
2018-12-21T15:52:35.033Z,101889.11
2018-12-21T15:55:24.910Z,101894.73
2018-12-21T15:58:15.536Z,101892.52
2018-12-21T16:01:05.714Z,101893.98
2018-12-21T16:03:56.594Z,101899.50
2018-12-21T16:06:46.383Z,101911.78
2018-12-21T16:09:37.239Z,101914.31
2018-12-21T16:12:28.124Z,101914.67
2018-12-21T16:15:18.816Z,101910.28
2018-12-21T16:18:08.888Z,101906.27
2018-12-21T16:20:58.533Z,101905.45
2018-12-21T16:23:48.800Z,101897.07
2018-12-21T16:26:40.591Z,101906.29
2018-12-21T16:29:30.446Z,101903.23
2018-12-21T16:32:20.577Z,101909.47
2018-12-21T16:35:10.384Z,101922.56
2018-12-21T16:38:00.224Z,101914.86
2018-12-21T16:40:52.292Z,101914.98
2018-12-21T16:43:41.925Z,101908.78
2018-12-21T16:46:32.394Z,101902.90
2018-12-21T16:49:22.841Z,101898.55
2018-12-21T16:52:12.665Z,101896.38
2018-12-21T16:55:02.523Z,101900.42
2018-12-21T16:57:52.556Z,101898.52
2018-12-21T17:00:43.288Z,101890.75
2018-12-21T17:03:33.238Z,101878.77
2018-12-21T17:06:24.116Z,101884.22
2018-12-21T17:09:14.056Z,101893.11
2018-12-21T17:12:04.210Z,101880.75
2018-12-21T17:14:54.833Z,101884.35
2018-12-21T17:17:44.534Z,101884.87
2018-12-21T17:20:34.328Z,101884.92
2018-12-21T17:23:24.229Z,101886.41
2018-12-21T17:26:21.272Z,101887.75
2018-12-21T17:29:06.471Z,101870.77
2018-12-21T17:31:56.462Z,101886.84
2018-12-21T17:34:46.426Z,101887.46
2018-12-21T17:37:36.443Z,101891.69
2018-12-21T17:40:26.240Z,101894.45
2018-12-21T17:43:16.056Z,101893.99
2018-12-21T17:46:05.889Z,101891.45
2018-12-21T17:48:55.726Z,101889.50
2018-12-21T17:51:45.559Z,101897.36
2018-12-21T17:54:36.220Z,101896.72
2018-12-21T17:57:26.388Z,101896.66
2018-12-21T18:00:21.551Z,101888.22
2018-12-21T18:03:20.386Z,101895.51
2018-12-21T18:06:10.520Z,101889.61
2018-12-21T18:09:00.340Z,101892.90
2018-12-21T18:11:57.157Z,101890.23
2018-12-21T18:14:44.184Z,101885.03
2018-12-21T18:17:35.047Z,101881.83
2018-12-21T18:20:25.983Z,101886.45
2018-12-21T18:23:17.072Z,101885.94
2018-12-21T18:26:07.686Z,101896.20
2018-12-21T18:28:57.739Z,101887.70
2018-12-21T18:32:05.842Z,101889.12
2018-12-21T18:34:58.363Z,101891.78
2018-12-21T18:38:00.262Z,101883.75
2018-12-21T18:40:51.128Z,101884.99
2018-12-21T18:43:42.065Z,101885.31
2018-12-21T18:46:32.039Z,101875.13
2018-12-21T18:49:22.861Z,101876.95
2018-12-21T18:52:12.954Z,101876.20
2018-12-21T18:55:02.706Z,101881.03
2018-12-21T18:57:52.454Z,101880.13
2018-12-21T19:00:43.385Z,101876.58
2018-12-21T19:03:33.331Z,101869.05
2018-12-21T19:06:23.127Z,101881.27
2018-12-21T19:09:13.282Z,101881.78
2018-12-21T19:12:03.206Z,101876.69
2018-12-21T19:14:53.869Z,101875.94
2018-12-21T19:17:43.715Z,101872.64
2018-12-21T19:20:33.549Z,101881.56
2018-12-21T19:23:23.483Z,101884.45
2018-12-21T19:26:13.571Z,101877.05
2018-12-21T19:29:03.628Z,101886.89
2018-12-21T19:31:53.634Z,101893.41
2018-12-21T19:34:43.468Z,101888.39
2018-12-21T19:37:33.539Z,101885.88
2018-12-21T19:40:23.454Z,101892.59
2018-12-21T19:43:13.318Z,101891.95
2018-12-21T19:46:03.314Z,101895.73
2018-12-21T19:48:53.492Z,101896.57
2018-12-21T19:51:44.257Z,101892.70
2018-12-21T19:54:35.151Z,101893.77
2018-12-21T19:57:24.902Z,101891.95
2018-12-21T20:00:15.833Z,101891.14
2018-12-21T20:03:05.878Z,101887.70
2018-12-21T20:05:56.932Z,101884.80
2018-12-21T20:08:47.610Z,101882.59
2018-12-21T20:11:38.123Z,101879.02
2018-12-21T20:14:28.624Z,101873.73
2018-12-21T20:17:19.313Z,101870.75
2018-12-21T20:20:10.737Z,101865.03
2018-12-21T20:23:01.082Z,101864.39
2018-12-21T20:25:52.022Z,101855.17
2018-12-21T20:28:41.982Z,101846.67
2018-12-21T20:31:31.710Z,101850.14
2018-12-21T20:34:21.694Z,101846.67
2018-12-21T20:37:11.594Z,101849.33
2018-12-21T20:40:01.708Z,101850.91
2018-12-21T20:42:51.658Z,101851.88
2018-12-21T20:45:42.609Z,101854.03
2018-12-21T20:48:32.573Z,101847.19
2018-12-21T20:51:23.491Z,101853.28
2018-12-21T20:54:14.521Z,101841.98
2018-12-21T20:57:05.976Z,101847.31
2018-12-21T20:59:56.387Z,101840.59
2018-12-21T21:02:48.346Z,101840.14
2018-12-21T21:05:39.003Z,101837.78
2018-12-21T21:08:29.058Z,101830.57
2018-12-21T21:11:24.299Z,101829.73
2018-12-21T21:14:12.597Z,101832.22
2018-12-21T21:17:02.977Z,101826.45
2018-12-21T21:19:52.873Z,101826.32
2018-12-21T21:22:42.796Z,101826.77
2018-12-21T21:25:32.767Z,101828.16
2018-12-21T21:28:22.870Z,101829.80
2018-12-21T21:31:13.915Z,101822.03
2018-12-21T21:34:03.855Z,101821.70
2018-12-21T21:36:53.655Z,101817.72
2018-12-21T21:39:43.620Z,101814.67
2018-12-21T21:42:33.608Z,101807.98
2018-12-21T21:45:23.654Z,101805.68
2018-12-21T21:48:13.935Z,101815.73
2018-12-21T21:51:04.922Z,101817.84
2018-12-21T21:53:55.646Z,101811.19
2018-12-21T21:56:45.519Z,101807.27
2018-12-21T21:59:35.869Z,101805.68
2018-12-21T22:02:25.820Z,101798.67
2018-12-21T22:05:16.671Z,101804.44
2018-12-21T22:08:07.463Z,101802.53
2018-12-21T22:11:02.084Z,101806.87
2018-12-21T22:13:51.438Z,101801.62
2018-12-21T22:16:41.196Z,101803.17
2018-12-21T22:19:31.097Z,101802.66
2018-12-21T22:22:21.315Z,101794.61
2018-12-21T22:25:11.161Z,101797.46
2018-12-21T22:28:01.423Z,101786.47
2018-12-21T22:30:51.766Z,101783.12
2018-12-21T22:33:41.634Z,101777.47
2018-12-21T22:36:31.638Z,101775.20
2018-12-21T22:39:21.811Z,101765.95
2018-12-21T22:42:11.570Z,101752.23
2018-12-21T22:45:01.663Z,101750.48
2018-12-21T22:47:51.451Z,101746.55
2018-12-21T22:50:41.625Z,101748.11
2018-12-21T22:53:32.339Z,101748.75
2018-12-21T22:56:22.314Z,101747.06
2018-12-21T22:59:12.166Z,101748.84
2018-12-21T23:02:02.176Z,101745.93
2018-12-21T23:04:52.933Z,101741.13
2018-12-21T23:07:42.943Z,101748.30
2018-12-21T23:10:33.848Z,101748.65
2018-12-21T23:13:23.827Z,101748.59
2018-12-21T23:16:13.689Z,101744.23
2018-12-21T23:19:03.647Z,101740.44
2018-12-21T23:21:53.690Z,101731.82
2018-12-21T23:24:43.908Z,101729.16
2018-12-21T23:27:34.535Z,101724.36
2018-12-21T23:30:24.344Z,101722.58
2018-12-21T23:33:14.191Z,101722.22
2018-12-21T23:36:04.200Z,101722.96
2018-12-21T23:38:54.970Z,101723.73
2018-12-21T23:41:45.179Z,101721.53
2018-12-21T23:44:34.890Z,101718.06
2018-12-21T23:47:25.846Z,101717.54
2018-12-21T23:50:15.837Z,101709.30
2018-12-21T23:53:05.811Z,101708.06
2018-12-21T23:55:55.584Z,101710.08
2018-12-21T23:58:45.633Z,101705.31
